createdAt,value
2019-06-10T00:00:31.835Z,101018.55
2019-06-10T00:05:35.761Z,101010.11
2019-06-10T00:10:41.761Z,101000.43
2019-06-10T00:15:44.670Z,100996.90
2019-06-10T00:20:48.206Z,101004.09
2019-06-10T00:25:51.754Z,100996.41
2019-06-10T00:30:55.208Z,100996.70
2019-06-10T00:36:02.312Z,100995.01
2019-06-10T00:41:07.634Z,100990.33
2019-06-10T00:46:13.161Z,100985.20
2019-06-10T00:51:16.202Z,100977.36
2019-06-10T00:56:21.575Z,100965.87
2019-06-10T01:01:24.970Z,100963.09
2019-06-10T01:06:28.441Z,100948.95
2019-06-10T01:11:32.060Z,100942.14
2019-06-10T01:16:35.519Z,100947.34
2019-06-10T01:21:41.438Z,100942.73
2019-06-10T01:26:44.192Z,100932.60
2019-06-10T01:31:47.712Z,100925.41
2019-06-10T01:36:51.187Z,100924.17
2019-06-10T01:41:55.190Z,100901.97
2019-06-10T01:47:00.923Z,100902.07
2019-06-10T01:52:04.940Z,100886.73
2019-06-10T01:57:10.974Z,100889.55
2019-06-10T02:02:23.693Z,100867.46
2019-06-10T02:07:26.142Z,100870.63
2019-06-10T02:12:31.501Z,100867.80
2019-06-10T02:17:35.125Z,100861.20
2019-06-10T02:22:40.942Z,100862.53
2019-06-10T02:27:43.876Z,100859.01
2019-06-10T02:32:47.340Z,100854.98
2019-06-10T02:37:53.695Z,100858.62
2019-06-10T02:42:58.129Z,100859.01
2019-06-10T02:48:04.162Z,100855.84
2019-06-10T02:53:07.967Z,100847.05
2019-06-10T02:58:13.754Z,100840.34
2019-06-10T03:03:22.887Z,100843.52
2019-06-10T03:08:26.822Z,100835.58
2019-06-10T03:13:28.124Z,100835.09
2019-06-10T03:18:32.893Z,100838.65
2019-06-10T03:23:36.454Z,100838.75
2019-06-10T03:28:39.906Z,100830.12
2019-06-10T03:33:47.575Z,100836.17
2019-06-10T03:38:48.584Z,100832.90
2019-06-10T03:43:53.080Z,100829.96
2019-06-10T03:48:56.693Z,100833.59
2019-06-10T03:54:02.322Z,100830.55
2019-06-10T03:59:05.407Z,100834.08
2019-06-10T04:04:08.863Z,100836.17
2019-06-10T04:09:12.334Z,100827.38
2019-06-10T04:14:15.842Z,100821.53
2019-06-10T04:19:19.646Z,100808.73
2019-06-10T04:24:25.137Z,100804.70
2019-06-10T04:29:29.091Z,100820.42
2019-06-10T04:34:33.359Z,100822.72
2019-06-10T04:39:36.874Z,100793.06
2019-06-10T04:44:42.323Z,100817.84
2019-06-10T04:49:45.523Z,100806.28
2019-06-10T04:54:48.992Z,100803.37
2019-06-10T04:59:53.012Z,100796.66
2019-06-10T05:04:56.710Z,100792.39
2019-06-10T05:10:00.162Z,100798.98
2019-06-10T05:15:04.406Z,100795.46
2019-06-10T05:20:08.193Z,100801.88
2019-06-10T05:25:12.860Z,100799.84
2019-06-10T05:30:16.775Z,100795.46
2019-06-10T05:35:21.044Z,100788.77
2019-06-10T05:40:26.538Z,100787.29
2019-06-10T05:45:32.757Z,100787.68
2019-06-10T05:50:36.113Z,100789.52
2019-06-10T05:55:42.727Z,100784.75
2019-06-10T06:00:46.457Z,100785.80
2019-06-10T06:05:52.354Z,100783.70
2019-06-10T06:10:55.282Z,100781.08
2019-06-10T06:15:58.740Z,100779.89
2019-06-10T06:21:20.107Z,100782.52
2019-06-10T06:26:07.525Z,100779.74
2019-06-10T06:31:12.734Z,100779.84
2019-06-10T06:36:16.351Z,100771.16
2019-06-10T06:41:22.424Z,100763.38
2019-06-10T06:46:25.362Z,100758.11
2019-06-10T06:51:38.081Z,100761.94
2019-06-10T06:56:37.392Z,100751.11
2019-06-10T07:01:41.472Z,100753.30
2019-06-10T07:06:45.761Z,100745.51
2019-06-10T07:11:49.453Z,100744.31
2019-06-10T07:16:53.109Z,100740.89
2019-06-10T07:22:08.896Z,100745.76
2019-06-10T07:27:02.752Z,100742.19
2019-06-10T07:32:06.366Z,100737.42
2019-06-10T07:37:10.113Z,100740.00
2019-06-10T07:42:13.702Z,100743.27
2019-06-10T07:47:17.305Z,100736.23
2019-06-10T07:52:23.316Z,100731.16
2019-06-10T07:57:25.986Z,100727.99
2019-06-10T08:02:32.165Z,100701.61
2019-06-10T08:07:35.261Z,100701.40
2019-06-10T08:12:39.301Z,100705.28
2019-06-10T08:17:44.470Z,100686.23
2019-06-10T08:22:52.568Z,100688.45
2019-06-10T08:27:53.267Z,100689.89
2019-06-10T08:32:56.908Z,100681.80
2019-06-10T08:38:02.481Z,100683.13
2019-06-10T08:43:06.232Z,100673.99
2019-06-10T08:48:09.989Z,100684.23
2019-06-10T08:53:17.843Z,100671.42
2019-06-10T08:58:18.875Z,100670.95
2019-06-10T09:03:23.374Z,100671.55
2019-06-10T09:08:27.086Z,100672.17
2019-06-10T09:13:31.109Z,100658.52
2019-06-10T09:18:35.781Z,100659.82
2019-06-10T09:23:41.092Z,100641.20
2019-06-10T09:28:48.946Z,100640.81
2019-06-10T09:33:53.434Z,100641.42
2019-06-10T09:38:55.880Z,100635.33
2019-06-10T09:43:59.936Z,100628.97
2019-06-10T09:49:07.230Z,100638.98
2019-06-10T09:54:12.746Z,100638.27
2019-06-10T09:59:16.227Z,100636.06
2019-06-10T10:04:19.704Z,100646.54
2019-06-10T10:09:24.037Z,100646.30
2019-06-10T10:14:27.537Z,100634.58
2019-06-10T10:19:31.080Z,100628.48
2019-06-10T10:24:34.547Z,100615.34
2019-06-10T10:29:38.028Z,100602.52
2019-06-10T10:34:43.758Z,100597.26
2019-06-10T10:39:46.864Z,100585.43
2019-06-10T10:44:52.981Z,100594.48
2019-06-10T10:49:57.072Z,100589.48
2019-06-10T10:55:06.130Z,100579.61
2019-06-10T11:00:13.025Z,100570.34
2019-06-10T11:05:34.211Z,100565.72
2019-06-10T11:10:38.041Z,100565.35
2019-06-10T11:15:43.365Z,100560.97
2019-06-10T11:20:47.385Z,100542.07
2019-06-10T11:25:53.704Z,100539.99
2019-06-10T11:30:58.244Z,100531.21
2019-06-10T11:36:02.829Z,100525.23
2019-06-10T11:41:06.547Z,100520.83
2019-06-10T11:46:10.017Z,100518.53
2019-06-10T11:51:13.710Z,100519.98
2019-06-10T11:56:18.684Z,100507.56
2019-06-10T12:01:22.840Z,100496.94
2019-06-10T12:06:26.585Z,100496.81
2019-06-10T12:11:34.210Z,100469.50
2019-06-10T12:21:43.501Z,100473.91
2019-06-10T12:26:47.123Z,100462.17
2019-06-10T12:31:51.395Z,100469.38
2019-06-10T12:37:01.344Z,100459.14
2019-06-10T12:42:04.006Z,100462.55
2019-06-10T12:47:08.352Z,100449.14
2019-06-10T12:52:12.588Z,100443.30
2019-06-10T12:57:16.541Z,100434.53
2019-06-10T13:02:24.470Z,100428.31
2019-06-10T13:07:25.293Z,100426.09
2019-06-10T13:12:28.762Z,100423.69
2019-06-10T13:17:32.231Z,100426.36
2019-06-10T13:22:35.780Z,100434.53
2019-06-10T13:27:39.236Z,100433.41
2019-06-10T13:32:43.441Z,100433.17
2019-06-10T13:37:46.972Z,100412.95
2019-06-10T13:42:52.655Z,100409.80
2019-06-10T13:47:55.650Z,100417.45
2019-06-10T13:52:59.280Z,100421.60
2019-06-10T13:58:06.180Z,100426.12
2019-06-10T14:03:11.238Z,100444.66
2019-06-10T14:08:15.426Z,100456.59
2019-06-10T14:13:18.324Z,100459.41
2019-06-10T14:18:23.149Z,100432.22
2019-06-10T14:23:26.996Z,100439.89
2019-06-10T14:28:39.921Z,100433.30
2019-06-10T14:33:35.806Z,100427.31
2019-06-10T14:38:39.299Z,100435.25
2019-06-10T14:43:42.745Z,100414.91
2019-06-10T14:48:46.227Z,100414.91
2019-06-10T14:53:50.075Z,100409.04
2019-06-10T14:58:53.979Z,100401.11
2019-06-10T15:03:57.732Z,100399.05
2019-06-10T15:09:01.335Z,100381.14
2019-06-10T15:14:05.180Z,100381.26
2019-06-10T15:19:16.461Z,100391.00
2019-06-10T15:24:14.077Z,100370.41
2019-06-10T15:29:18.960Z,100370.41
2019-06-10T15:34:24.358Z,100373.09
2019-06-10T15:39:27.823Z,100378.92
2019-06-10T15:44:48.564Z,100381.14
2019-06-10T15:49:37.511Z,100377.84
2019-06-10T15:54:42.642Z,100377.61
2019-06-10T15:59:46.594Z,100411.75
2019-06-10T16:04:52.471Z,100425.64
2019-06-10T16:09:55.446Z,100436.59
2019-06-10T16:14:59.255Z,100440.39
2019-06-10T16:20:03.809Z,100447.31
2019-06-10T16:25:07.846Z,100455.09
2019-06-10T16:30:13.146Z,100457.69
2019-06-10T16:35:18.757Z,100415.53
2019-06-10T16:40:25.287Z,100408.22
2019-06-10T16:45:31.689Z,100428.06
2019-06-10T16:50:34.398Z,100416.87
2019-06-10T16:55:39.654Z,100431.13
2019-06-10T17:00:43.392Z,100416.48
2019-06-10T17:05:46.831Z,100424.91
2019-06-10T17:10:52.152Z,100429.41
2019-06-10T17:15:55.766Z,100417.34
2019-06-10T17:20:59.223Z,100396.27
2019-06-10T17:26:02.705Z,100397.61
2019-06-10T17:31:06.713Z,100410.02
2019-06-10T17:36:12.556Z,100429.41
2019-06-10T17:41:15.560Z,100438.41
2019-06-10T17:46:19.293Z,100454.27
2019-06-10T17:51:25.951Z,100460.02
2019-06-10T17:56:29.466Z,100463.66
2019-06-10T18:01:35.695Z,100464.64
2019-06-10T18:06:39.250Z,100466.09
2019-06-10T18:11:43.000Z,100484.73
2019-06-10T18:16:46.495Z,100487.66
2019-06-10T18:21:52.146Z,100492.91
2019-06-10T18:26:56.692Z,100488.88
2019-06-10T18:32:00.417Z,100473.73
2019-06-10T18:37:04.792Z,100483.97
2019-06-10T18:42:08.260Z,100488.56
2019-06-10T18:47:13.424Z,100486.41
2019-06-10T18:52:17.009Z,100495.52
2019-06-10T18:57:22.486Z,100474.20
2019-06-10T19:02:26.343Z,100468.95
2019-06-10T19:07:31.404Z,100482.46
2019-06-10T19:12:36.605Z,100466.52
2019-06-10T19:17:42.276Z,100475.17
2019-06-10T19:22:45.833Z,100475.80
2019-06-10T19:27:49.278Z,100482.77
2019-06-10T19:32:52.874Z,100465.80
2019-06-10T19:37:56.321Z,100472.94
2019-06-10T19:42:59.798Z,100478.05
2019-06-10T19:48:03.568Z,100477.92
2019-06-10T19:53:07.377Z,100482.17
2019-06-10T19:58:13.278Z,100475.84
2019-06-10T20:03:16.750Z,100468.41
2019-06-10T20:08:22.526Z,100456.43
2019-06-10T20:13:25.411Z,100452.56
2019-06-10T20:18:33.041Z,100465.25
2019-06-10T20:23:35.614Z,100461.59
2019-06-10T20:28:39.091Z,100469.99
2019-06-10T20:33:43.246Z,100467.80
2019-06-10T20:38:48.761Z,100473.89
2019-06-10T20:43:55.341Z,100474.01
2019-06-10T20:48:57.323Z,100486.34
2019-06-10T20:54:02.693Z,100474.16
2019-06-10T20:59:06.333Z,100478.91
2019-06-10T21:04:12.594Z,100481.20
2019-06-10T21:09:17.377Z,100495.00
2019-06-10T21:14:22.934Z,100492.06
2019-06-10T21:19:26.104Z,100484.99
2019-06-10T21:24:29.550Z,100500.83
2019-06-10T21:29:33.028Z,100497.67
2019-06-10T21:34:36.474Z,100494.75
2019-06-10T21:39:39.963Z,100488.78
2019-06-10T21:44:43.885Z,100492.78
2019-06-10T21:49:48.396Z,100490.59
2019-06-10T21:54:52.781Z,100483.35
2019-06-10T21:59:56.372Z,100484.82
2019-06-10T22:04:59.877Z,100494.45
2019-06-10T22:10:04.795Z,100495.06
2019-06-10T22:15:12.660Z,100500.42
2019-06-10T22:20:16.284Z,100488.22
2019-06-10T22:25:22.234Z,100482.01
2019-06-10T22:30:25.154Z,100474.57
2019-06-10T22:35:28.622Z,100492.00
2019-06-10T22:40:32.797Z,100498.81
2019-06-10T22:45:36.412Z,100502.23
2019-06-10T22:50:39.888Z,100491.52
2019-06-10T22:55:43.457Z,100488.94
2019-06-10T23:00:48.099Z,100486.38
2019-06-10T23:05:52.374Z,100498.93
2019-06-10T23:10:57.952Z,100498.93
2019-06-10T23:16:02.586Z,100491.98
2019-06-10T23:21:06.289Z,100502.70
2019-06-10T23:26:10.366Z,100504.05
2019-06-10T23:31:13.825Z,100513.18
2019-06-10T23:36:17.292Z,100523.30
2019-06-10T23:41:22.309Z,100515.37
2019-06-10T23:46:26.027Z,100509.90
2019-06-10T23:51:29.496Z,100526.44
2019-06-10T23:56:33.015Z,100533.53
